sensor_id;sensor_type;location;lat;lon;timestamp;temperature;humidity
52517;DHT22;59374;53.210;5.726;2022-07-05T00:00:35;12.80;99.90
52517;DHT22;59374;53.210;5.726;2022-07-05T00:03:01;12.80;99.90
52517;DHT22;59374;53.210;5.726;2022-07-05T00:05:26;12.80;99.90
52517;DHT22;59374;53.210;5.726;2022-07-05T00:07:52;12.70;99.90
52517;DHT22;59374;53.210;5.726;2022-07-05T00:10:17;12.70;99.90
52517;DHT22;59374;53.210;5.726;2022-07-05T00:12:43;12.60;99.90
52517;DHT22;59374;53.210;5.726;2022-07-05T00:15:09;12.60;99.90
52517;DHT22;59374;53.210;5.726;2022-07-05T00:17:34;12.50;99.90
52517;DHT22;59374;53.210;5.726;2022-07-05T00:20:00;12.50;99.90
52517;DHT22;59374;53.210;5.726;2022-07-05T00:22:25;12.50;99.90
52517;DHT22;59374;53.210;5.726;2022-07-05T00:24:51;12.40;99.90
52517;DHT22;59374;53.210;5.726;2022-07-05T00:27:16;12.40;99.90
52517;DHT22;59374;53.210;5.726;2022-07-05T00:29:42;12.40;99.90
52517;DHT22;59374;53.210;5.726;2022-07-05T00:32:07;12.40;99.90
52517;DHT22;59374;53.210;5.726;2022-07-05T00:34:34;12.40;99.90
52517;DHT22;59374;53.210;5.726;2022-07-05T00:36:59;12.40;99.90
52517;DHT22;59374;53.210;5.726;2022-07-05T00:39:25;12.50;99.90
52517;DHT22;59374;53.210;5.726;2022-07-05T00:41:52;12.50;99.90
52517;DHT22;59374;53.210;5.726;2022-07-05T00:44:27;12.50;99.90
52517;DHT22;59374;53.210;5.726;2022-07-05T00:46:53;12.50;99.90
52517;DHT22;59374;53.210;5.726;2022-07-05T00:49:18;12.50;99.90
52517;DHT22;59374;53.210;5.726;2022-07-05T00:51:44;12.50;99.90
52517;DHT22;59374;53.210;5.726;2022-07-05T00:54:09;12.40;99.90
52517;DHT22;59374;53.210;5.726;2022-07-05T00:56:35;12.40;99.90
52517;DHT22;59374;53.210;5.726;2022-07-05T00:59:00;12.40;99.90
52517;DHT22;59374;53.210;5.726;2022-07-05T01:01:26;12.40;99.90
52517;DHT22;59374;53.210;5.726;2022-07-05T01:03:52;12.40;99.90
52517;DHT22;59374;53.210;5.726;2022-07-05T01:06:18;12.40;99.90
52517;DHT22;59374;53.210;5.726;2022-07-05T01:08:44;12.40;99.90
52517;DHT22;59374;53.210;5.726;2022-07-05T01:11:11;12.40;99.90
52517;DHT22;59374;53.210;5.726;2022-07-05T01:13:37;12.40;99.90
52517;DHT22;59374;53.210;5.726;2022-07-05T01:16:03;12.40;99.90
52517;DHT22;59374;53.210;5.726;2022-07-05T01:18:29;12.40;99.90
52517;DHT22;59374;53.210;5.726;2022-07-05T01:20:55;12.30;99.90
52517;DHT22;59374;53.210;5.726;2022-07-05T01:23:21;12.30;99.90
52517;DHT22;59374;53.210;5.726;2022-07-05T01:25:47;12.30;99.90
52517;DHT22;59374;53.210;5.726;2022-07-05T01:28:13;12.40;99.90
52517;DHT22;59374;53.210;5.726;2022-07-05T01:30:39;12.40;99.90
52517;DHT22;59374;53.210;5.726;2022-07-05T01:33:05;12.50;99.90
52517;DHT22;59374;53.210;5.726;2022-07-05T01:35:32;12.50;99.90
52517;DHT22;59374;53.210;5.726;2022-07-05T01:37:57;12.50;99.90
52517;DHT22;59374;53.210;5.726;2022-07-05T01:40:23;12.50;99.90
52517;DHT22;59374;53.210;5.726;2022-07-05T01:42:48;12.40;99.90
52517;DHT22;59374;53.210;5.726;2022-07-05T01:45:14;12.40;99.90
52517;DHT22;59374;53.210;5.726;2022-07-05T01:48:00;12.40;99.90
52517;DHT22;59374;53.210;5.726;2022-07-05T01:50:26;12.40;99.90
52517;DHT22;59374;53.210;5.726;2022-07-05T01:52:53;12.40;99.90
52517;DHT22;59374;53.210;5.726;2022-07-05T01:55:20;12.40;99.90
52517;DHT22;59374;53.210;5.726;2022-07-05T01:57:46;12.40;99.90
52517;DHT22;59374;53.210;5.726;2022-07-05T02:00:11;12.40;99.90
52517;DHT22;59374;53.210;5.726;2022-07-05T02:02:40;12.40;99.90
52517;DHT22;59374;53.210;5.726;2022-07-05T02:05:05;12.50;99.90
52517;DHT22;59374;53.210;5.726;2022-07-05T02:07:31;12.50;99.90
52517;DHT22;59374;53.210;5.726;2022-07-05T02:09:57;12.60;99.90
52517;DHT22;59374;53.210;5.726;2022-07-05T02:12:22;12.60;99.90
52517;DHT22;59374;53.210;5.726;2022-07-05T02:14:48;12.60;99.90
52517;DHT22;59374;53.210;5.726;2022-07-05T02:22:47;12.60;99.90
52517;DHT22;59374;53.210;5.726;2022-07-05T02:25:12;12.60;99.90
52517;DHT22;59374;53.210;5.726;2022-07-05T02:27:38;12.60;99.90
52517;DHT22;59374;53.210;5.726;2022-07-05T02:30:03;12.60;99.90
52517;DHT22;59374;53.210;5.726;2022-07-05T02:32:29;12.60;99.90
52517;DHT22;59374;53.210;5.726;2022-07-05T02:34:57;12.60;99.90
52517;DHT22;59374;53.210;5.726;2022-07-05T02:37:22;12.60;99.90
52517;DHT22;59374;53.210;5.726;2022-07-05T02:39:48;12.70;99.90
52517;DHT22;59374;53.210;5.726;2022-07-05T02:42:13;12.70;99.90
52517;DHT22;59374;53.210;5.726;2022-07-05T02:44:39;12.80;99.90
52517;DHT22;59374;53.210;5.726;2022-07-05T02:47:04;12.90;99.90
52517;DHT22;59374;53.210;5.726;2022-07-05T02:49:30;12.90;99.90
52517;DHT22;59374;53.210;5.726;2022-07-05T02:51:55;13.00;99.90
52517;DHT22;59374;53.210;5.726;2022-07-05T02:54:21;13.10;99.90
52517;DHT22;59374;53.210;5.726;2022-07-05T02:56:47;13.20;99.90
52517;DHT22;59374;53.210;5.726;2022-07-05T02:59:12;13.20;99.90
52517;DHT22;59374;53.210;5.726;2022-07-05T03:01:37;13.30;99.90
52517;DHT22;59374;53.210;5.726;2022-07-05T03:04:03;13.30;99.90
52517;DHT22;59374;53.210;5.726;2022-07-05T03:06:29;13.30;99.90
52517;DHT22;59374;53.210;5.726;2022-07-05T03:08:54;13.30;99.90
52517;DHT22;59374;53.210;5.726;2022-07-05T03:11:20;13.30;99.90
52517;DHT22;59374;53.210;5.726;2022-07-05T03:13:46;13.30;99.90
52517;DHT22;59374;53.210;5.726;2022-07-05T03:16:13;13.30;99.90
52517;DHT22;59374;53.210;5.726;2022-07-05T03:18:38;13.30;99.90
52517;DHT22;59374;53.210;5.726;2022-07-05T03:21:04;13.30;99.90
52517;DHT22;59374;53.210;5.726;2022-07-05T03:23:29;13.30;99.90
52517;DHT22;59374;53.210;5.726;2022-07-05T03:25:55;13.40;99.90
52517;DHT22;59374;53.210;5.726;2022-07-05T03:28:20;13.40;99.90
52517;DHT22;59374;53.210;5.726;2022-07-05T03:30:46;13.40;99.90
52517;DHT22;59374;53.210;5.726;2022-07-05T03:33:11;13.40;99.90
52517;DHT22;59374;53.210;5.726;2022-07-05T03:35:37;13.40;99.90
52517;DHT22;59374;53.210;5.726;2022-07-05T03:38:02;13.40;99.90
52517;DHT22;59374;53.210;5.726;2022-07-05T03:40:28;13.50;99.90
52517;DHT22;59374;53.210;5.726;2022-07-05T03:42:53;13.50;99.90
52517;DHT22;59374;53.210;5.726;2022-07-05T03:45:19;13.50;99.90
52517;DHT22;59374;53.210;5.726;2022-07-05T03:47:44;13.40;99.90
52517;DHT22;59374;53.210;5.726;2022-07-05T03:50:10;13.40;99.90
52517;DHT22;59374;53.210;5.726;2022-07-05T03:52:35;13.30;99.90
52517;DHT22;59374;53.210;5.726;2022-07-05T03:55:01;13.20;99.90
52517;DHT22;59374;53.210;5.726;2022-07-05T03:57:27;13.20;99.90
52517;DHT22;59374;53.210;5.726;2022-07-05T03:59:52;13.20;99.90
52517;DHT22;59374;53.210;5.726;2022-07-05T04:02:18;13.10;99.90
52517;DHT22;59374;53.210;5.726;2022-07-05T04:04:43;13.10;99.90
52517;DHT22;59374;53.210;5.726;2022-07-05T04:07:09;13.00;99.90
52517;DHT22;59374;53.210;5.726;2022-07-05T04:09:35;13.10;99.90
52517;DHT22;59374;53.210;5.726;2022-07-05T04:12:00;13.00;99.90
52517;DHT22;59374;53.210;5.726;2022-07-05T04:14:26;13.00;99.90
52517;DHT22;59374;53.210;5.726;2022-07-05T04:16:51;13.00;99.90
52517;DHT22;59374;53.210;5.726;2022-07-05T04:19:17;13.00;99.90
52517;DHT22;59374;53.210;5.726;2022-07-05T04:21:42;13.00;99.90
52517;DHT22;59374;53.210;5.726;2022-07-05T04:24:08;13.00;99.90
52517;DHT22;59374;53.210;5.726;2022-07-05T04:26:33;13.00;99.90
52517;DHT22;59374;53.210;5.726;2022-07-05T04:28:59;13.00;99.90
52517;DHT22;59374;53.210;5.726;2022-07-05T04:31:24;13.00;99.90
52517;DHT22;59374;53.210;5.726;2022-07-05T04:33:50;13.00;99.90
52517;DHT22;59374;53.210;5.726;2022-07-05T04:36:16;13.10;99.90
52517;DHT22;59374;53.210;5.726;2022-07-05T04:38:41;13.10;99.90
52517;DHT22;59374;53.210;5.726;2022-07-05T04:41:07;13.10;99.90
52517;DHT22;59374;53.210;5.726;2022-07-05T04:43:32;13.10;99.90
52517;DHT22;59374;53.210;5.726;2022-07-05T04:45:59;13.20;99.90
52517;DHT22;59374;53.210;5.726;2022-07-05T04:48:25;13.30;99.90
52517;DHT22;59374;53.210;5.726;2022-07-05T04:50:50;13.40;99.90
52517;DHT22;59374;53.210;5.726;2022-07-05T04:53:16;13.50;99.90
52517;DHT22;59374;53.210;5.726;2022-07-05T04:55:41;13.60;99.90
52517;DHT22;59374;53.210;5.726;2022-07-05T04:58:07;13.60;99.90
52517;DHT22;59374;53.210;5.726;2022-07-05T05:00:33;13.70;99.90
52517;DHT22;59374;53.210;5.726;2022-07-05T05:02:58;13.90;99.90
52517;DHT22;59374;53.210;5.726;2022-07-05T05:05:24;14.00;99.90
52517;DHT22;59374;53.210;5.726;2022-07-05T05:07:50;14.20;99.90
52517;DHT22;59374;53.210;5.726;2022-07-05T05:10:15;14.20;99.90
52517;DHT22;59374;53.210;5.726;2022-07-05T05:12:41;14.30;99.90
52517;DHT22;59374;53.210;5.726;2022-07-05T05:15:07;14.40;99.90
52517;DHT22;59374;53.210;5.726;2022-07-05T05:17:38;14.50;99.90
52517;DHT22;59374;53.210;5.726;2022-07-05T05:20:05;14.50;99.90
52517;DHT22;59374;53.210;5.726;2022-07-05T05:22:31;14.60;99.90
52517;DHT22;59374;53.210;5.726;2022-07-05T05:24:56;14.60;99.90
52517;DHT22;59374;53.210;5.726;2022-07-05T05:27:22;14.70;99.90
52517;DHT22;59374;53.210;5.726;2022-07-05T05:29:47;14.70;99.90
52517;DHT22;59374;53.210;5.726;2022-07-05T05:32:13;14.70;99.90
52517;DHT22;59374;53.210;5.726;2022-07-05T05:34:38;14.80;99.90
52517;DHT22;59374;53.210;5.726;2022-07-05T05:37:04;14.90;99.90
52517;DHT22;59374;53.210;5.726;2022-07-05T05:39:29;15.00;99.90
52517;DHT22;59374;53.210;5.726;2022-07-05T05:41:55;15.20;99.90
52517;DHT22;59374;53.210;5.726;2022-07-05T05:44:20;15.30;99.90
52517;DHT22;59374;53.210;5.726;2022-07-05T05:46:46;15.40;99.90
52517;DHT22;59374;53.210;5.726;2022-07-05T05:49:11;15.60;99.90
52517;DHT22;59374;53.210;5.726;2022-07-05T05:51:37;15.80;99.90
52517;DHT22;59374;53.210;5.726;2022-07-05T05:54:02;15.90;99.90
52517;DHT22;59374;53.210;5.726;2022-07-05T05:56:28;16.00;99.90
52517;DHT22;59374;53.210;5.726;2022-07-05T05:58:53;16.10;99.90
52517;DHT22;59374;53.210;5.726;2022-07-05T06:01:19;16.10;99.90
52517;DHT22;59374;53.210;5.726;2022-07-05T06:03:44;16.30;99.90
52517;DHT22;59374;53.210;5.726;2022-07-05T06:06:10;16.40;99.90
52517;DHT22;59374;53.210;5.726;2022-07-05T06:08:35;16.50;99.90
52517;DHT22;59374;53.210;5.726;2022-07-05T06:11:01;16.60;99.90
52517;DHT22;59374;53.210;5.726;2022-07-05T06:13:30;16.60;99.90
52517;DHT22;59374;53.210;5.726;2022-07-05T06:15:56;16.70;99.90
52517;DHT22;59374;53.210;5.726;2022-07-05T06:18:21;16.80;99.90
52517;DHT22;59374;53.210;5.726;2022-07-05T06:20:47;16.90;99.90
52517;DHT22;59374;53.210;5.726;2022-07-05T06:23:13;17.00;99.90
52517;DHT22;59374;53.210;5.726;2022-07-05T06:25:38;17.00;99.90
52517;DHT22;59374;53.210;5.726;2022-07-05T06:28:06;17.00;99.90
52517;DHT22;59374;53.210;5.726;2022-07-05T06:30:32;17.00;99.90
52517;DHT22;59374;53.210;5.726;2022-07-05T06:32:57;17.00;99.90
52517;DHT22;59374;53.210;5.726;2022-07-05T06:35:23;16.90;99.90
52517;DHT22;59374;53.210;5.726;2022-07-05T06:37:53;16.80;99.90
52517;DHT22;59374;53.210;5.726;2022-07-05T06:40:23;16.70;99.90
52517;DHT22;59374;53.210;5.726;2022-07-05T06:42:52;16.60;99.90
52517;DHT22;59374;53.210;5.726;2022-07-05T06:45:18;16.70;99.90
52517;DHT22;59374;53.210;5.726;2022-07-05T06:47:44;16.80;99.90
52517;DHT22;59374;53.210;5.726;2022-07-05T06:50:10;17.10;99.90
52517;DHT22;59374;53.210;5.726;2022-07-05T06:52:36;17.40;99.90
52517;DHT22;59374;53.210;5.726;2022-07-05T06:55:02;17.60;99.90
52517;DHT22;59374;53.210;5.726;2022-07-05T06:57:28;17.60;99.90
52517;DHT22;59374;53.210;5.726;2022-07-05T06:59:53;17.50;99.90
52517;DHT22;59374;53.210;5.726;2022-07-05T07:02:19;17.50;99.90
52517;DHT22;59374;53.210;5.726;2022-07-05T07:04:44;17.50;99.90
52517;DHT22;59374;53.210;5.726;2022-07-05T07:07:10;17.50;99.90
52517;DHT22;59374;53.210;5.726;2022-07-05T07:10:01;17.50;99.90
52517;DHT22;59374;53.210;5.726;2022-07-05T07:12:27;17.50;99.90
52517;DHT22;59374;53.210;5.726;2022-07-05T07:14:52;17.60;99.90
52517;DHT22;59374;53.210;5.726;2022-07-05T07:17:18;17.70;99.90
52517;DHT22;59374;53.210;5.726;2022-07-05T07:19:43;17.80;99.90
52517;DHT22;59374;53.210;5.726;2022-07-05T07:22:09;17.70;99.90
52517;DHT22;59374;53.210;5.726;2022-07-05T07:24:34;17.60;99.90
52517;DHT22;59374;53.210;5.726;2022-07-05T07:27:00;17.50;99.90
52517;DHT22;59374;53.210;5.726;2022-07-05T07:29:32;17.40;99.90
52517;DHT22;59374;53.210;5.726;2022-07-05T07:31:58;17.60;99.90
52517;DHT22;59374;53.210;5.726;2022-07-05T07:34:23;18.00;99.90
52517;DHT22;59374;53.210;5.726;2022-07-05T07:36:49;18.20;99.90
52517;DHT22;59374;53.210;5.726;2022-07-05T07:39:15;18.50;99.90
52517;DHT22;59374;53.210;5.726;2022-07-05T07:41:41;18.60;99.90
52517;DHT22;59374;53.210;5.726;2022-07-05T07:44:06;18.60;99.90
52517;DHT22;59374;53.210;5.726;2022-07-05T07:46:32;18.60;99.90
52517;DHT22;59374;53.210;5.726;2022-07-05T07:48:58;18.60;99.90
52517;DHT22;59374;53.210;5.726;2022-07-05T07:51:23;18.40;99.90
52517;DHT22;59374;53.210;5.726;2022-07-05T07:53:49;18.40;99.90
52517;DHT22;59374;53.210;5.726;2022-07-05T07:56:14;18.30;99.90
52517;DHT22;59374;53.210;5.726;2022-07-05T07:58:40;18.30;99.90
52517;DHT22;59374;53.210;5.726;2022-07-05T08:01:05;18.30;99.90
52517;DHT22;59374;53.210;5.726;2022-07-05T08:03:42;18.30;99.90
52517;DHT22;59374;53.210;5.726;2022-07-05T08:06:08;18.40;99.90
52517;DHT22;59374;53.210;5.726;2022-07-05T08:08:35;18.60;99.90
52517;DHT22;59374;53.210;5.726;2022-07-05T08:11:01;18.70;99.90
52517;DHT22;59374;53.210;5.726;2022-07-05T08:13:27;19.00;99.90
52517;DHT22;59374;53.210;5.726;2022-07-05T08:15:52;19.10;99.90
52517;DHT22;59374;53.210;5.726;2022-07-05T08:18:18;18.90;99.90
52517;DHT22;59374;53.210;5.726;2022-07-05T08:21:02;18.60;99.90
52517;DHT22;59374;53.210;5.726;2022-07-05T08:23:46;18.40;99.90
52517;DHT22;59374;53.210;5.726;2022-07-05T08:26:12;18.20;99.90
52517;DHT22;59374;53.210;5.726;2022-07-05T08:28:37;18.40;99.90
52517;DHT22;59374;53.210;5.726;2022-07-05T08:31:03;18.70;99.90
52517;DHT22;59374;53.210;5.726;2022-07-05T08:33:28;18.90;99.90
52517;DHT22;59374;53.210;5.726;2022-07-05T08:35:54;18.70;99.90
52517;DHT22;59374;53.210;5.726;2022-07-05T08:38:19;18.50;99.90
52517;DHT22;59374;53.210;5.726;2022-07-05T08:40:45;18.20;99.90
52517;DHT22;59374;53.210;5.726;2022-07-05T08:43:11;18.30;99.90
52517;DHT22;59374;53.210;5.726;2022-07-05T08:45:38;18.60;99.90
52517;DHT22;59374;53.210;5.726;2022-07-05T08:48:04;18.70;99.90
52517;DHT22;59374;53.210;5.726;2022-07-05T08:50:31;18.70;99.90
52517;DHT22;59374;53.210;5.726;2022-07-05T08:52:57;18.60;99.90
52517;DHT22;59374;53.210;5.726;2022-07-05T08:55:23;18.50;99.90
52517;DHT22;59374;53.210;5.726;2022-07-05T08:57:49;18.40;99.90
52517;DHT22;59374;53.210;5.726;2022-07-05T09:00:14;18.50;99.90
52517;DHT22;59374;53.210;5.726;2022-07-05T09:02:40;18.70;99.90
52517;DHT22;59374;53.210;5.726;2022-07-05T09:05:06;18.90;99.90
52517;DHT22;59374;53.210;5.726;2022-07-05T09:07:32;19.00;99.90
52517;DHT22;59374;53.210;5.726;2022-07-05T09:09:58;19.10;99.90
52517;DHT22;59374;53.210;5.726;2022-07-05T09:12:25;19.20;99.90
52517;DHT22;59374;53.210;5.726;2022-07-05T09:14:51;19.20;99.90
52517;DHT22;59374;53.210;5.726;2022-07-05T09:17:16;19.30;99.90
52517;DHT22;59374;53.210;5.726;2022-07-05T09:19:42;19.30;99.90
52517;DHT22;59374;53.210;5.726;2022-07-05T09:22:07;19.40;99.90
52517;DHT22;59374;53.210;5.726;2022-07-05T09:24:52;19.40;99.90
52517;DHT22;59374;53.210;5.726;2022-07-05T09:27:17;19.50;99.90
52517;DHT22;59374;53.210;5.726;2022-07-05T09:29:55;19.50;99.90
52517;DHT22;59374;53.210;5.726;2022-07-05T09:32:23;19.50;99.90
52517;DHT22;59374;53.210;5.726;2022-07-05T09:34:49;19.50;99.90
52517;DHT22;59374;53.210;5.726;2022-07-05T09:37:15;19.60;99.90
52517;DHT22;59374;53.210;5.726;2022-07-05T09:39:40;19.40;99.90
52517;DHT22;59374;53.210;5.726;2022-07-05T09:44:47;19.40;99.90
52517;DHT22;59374;53.210;5.726;2022-07-05T09:47:14;19.40;99.90
52517;DHT22;59374;53.210;5.726;2022-07-05T09:49:50;19.50;99.90
52517;DHT22;59374;53.210;5.726;2022-07-05T09:52:32;19.60;99.90
52517;DHT22;59374;53.210;5.726;2022-07-05T09:55:11;19.70;99.90
52517;DHT22;59374;53.210;5.726;2022-07-05T09:57:40;19.60;99.90
52517;DHT22;59374;53.210;5.726;2022-07-05T10:00:10;19.60;99.90
52517;DHT22;59374;53.210;5.726;2022-07-05T10:05:14;19.80;99.90
52517;DHT22;59374;53.210;5.726;2022-07-05T10:07:41;20.00;99.90
52517;DHT22;59374;53.210;5.726;2022-07-05T10:10:07;20.40;99.90
52517;DHT22;59374;53.210;5.726;2022-07-05T10:12:33;20.50;99.90
52517;DHT22;59374;53.210;5.726;2022-07-05T10:15:00;20.40;99.90
52517;DHT22;59374;53.210;5.726;2022-07-05T10:17:26;20.70;99.90
52517;DHT22;59374;53.210;5.726;2022-07-05T10:19:53;20.70;99.90
52517;DHT22;59374;53.210;5.726;2022-07-05T10:22:19;20.80;99.90
52517;DHT22;59374;53.210;5.726;2022-07-05T10:24:45;20.70;99.90
52517;DHT22;59374;53.210;5.726;2022-07-05T10:27:11;20.70;99.90
52517;DHT22;59374;53.210;5.726;2022-07-05T10:29:37;20.40;99.90
52517;DHT22;59374;53.210;5.726;2022-07-05T10:32:04;20.30;99.90
52517;DHT22;59374;53.210;5.726;2022-07-05T10:34:32;20.10;99.90
52517;DHT22;59374;53.210;5.726;2022-07-05T10:36:58;19.90;99.90
52517;DHT22;59374;53.210;5.726;2022-07-05T10:39:23;19.60;99.90
52517;DHT22;59374;53.210;5.726;2022-07-05T10:41:51;19.50;99.90
52517;DHT22;59374;53.210;5.726;2022-07-05T10:44:30;19.50;99.90
52517;DHT22;59374;53.210;5.726;2022-07-05T10:47:09;19.30;99.90
52517;DHT22;59374;53.210;5.726;2022-07-05T10:49:36;19.20;99.90
52517;DHT22;59374;53.210;5.726;2022-07-05T10:52:02;19.10;99.90
52517;DHT22;59374;53.210;5.726;2022-07-05T10:54:28;19.10;99.90
52517;DHT22;59374;53.210;5.726;2022-07-05T10:57:20;19.10;99.90
52517;DHT22;59374;53.210;5.726;2022-07-05T11:02:44;19.20;99.90
52517;DHT22;59374;53.210;5.726;2022-07-05T11:05:27;19.50;99.90
52517;DHT22;59374;53.210;5.726;2022-07-05T11:08:02;19.80;99.90
52517;DHT22;59374;53.210;5.726;2022-07-05T11:10:28;20.10;99.90
52517;DHT22;59374;53.210;5.726;2022-07-05T11:12:56;20.20;99.90
52517;DHT22;59374;53.210;5.726;2022-07-05T11:15:22;20.20;99.90
52517;DHT22;59374;53.210;5.726;2022-07-05T11:17:47;20.10;99.90
52517;DHT22;59374;53.210;5.726;2022-07-05T11:20:14;20.30;99.90
52517;DHT22;59374;53.210;5.726;2022-07-05T11:22:40;20.20;99.90
52517;DHT22;59374;53.210;5.726;2022-07-05T11:25:07;19.90;99.90
52517;DHT22;59374;53.210;5.726;2022-07-05T11:27:33;20.00;99.90
52517;DHT22;59374;53.210;5.726;2022-07-05T11:29:59;19.90;99.90
52517;DHT22;59374;53.210;5.726;2022-07-05T11:34:53;19.80;99.90
52517;DHT22;59374;53.210;5.726;2022-07-05T11:37:23;19.70;99.90
52517;DHT22;59374;53.210;5.726;2022-07-05T11:42:37;19.60;99.90
52517;DHT22;59374;53.210;5.726;2022-07-05T11:45:05;19.80;99.90
52517;DHT22;59374;53.210;5.726;2022-07-05T11:47:30;20.00;99.90
52517;DHT22;59374;53.210;5.726;2022-07-05T11:49:56;20.10;99.90
52517;DHT22;59374;53.210;5.726;2022-07-05T11:52:26;19.90;99.90
52517;DHT22;59374;53.210;5.726;2022-07-05T11:54:52;19.60;99.90
52517;DHT22;59374;53.210;5.726;2022-07-05T11:57:18;19.40;99.90
52517;DHT22;59374;53.210;5.726;2022-07-05T11:59:44;19.40;99.90
52517;DHT22;59374;53.210;5.726;2022-07-05T12:02:09;19.20;99.90
52517;DHT22;59374;53.210;5.726;2022-07-05T12:04:35;19.10;99.90
52517;DHT22;59374;53.210;5.726;2022-07-05T12:07:00;19.00;99.90
52517;DHT22;59374;53.210;5.726;2022-07-05T12:09:30;19.20;99.90
52517;DHT22;59374;53.210;5.726;2022-07-05T12:12:22;19.40;99.90
52517;DHT22;59374;53.210;5.726;2022-07-05T12:15:07;19.40;99.90
52517;DHT22;59374;53.210;5.726;2022-07-05T12:17:36;19.40;99.90
52517;DHT22;59374;53.210;5.726;2022-07-05T12:20:02;19.40;99.90
52517;DHT22;59374;53.210;5.726;2022-07-05T12:22:31;19.30;99.90
52517;DHT22;59374;53.210;5.726;2022-07-05T12:24:58;19.40;99.90
52517;DHT22;59374;53.210;5.726;2022-07-05T12:27:27;19.30;99.90
52517;DHT22;59374;53.210;5.726;2022-07-05T12:29:53;19.30;99.90
52517;DHT22;59374;53.210;5.726;2022-07-05T12:32:18;19.40;99.90
52517;DHT22;59374;53.210;5.726;2022-07-05T12:34:44;19.40;99.90
52517;DHT22;59374;53.210;5.726;2022-07-05T12:37:09;19.40;99.90
52517;DHT22;59374;53.210;5.726;2022-07-05T12:39:35;19.40;99.90
52517;DHT22;59374;53.210;5.726;2022-07-05T12:42:00;19.40;99.90
52517;DHT22;59374;53.210;5.726;2022-07-05T12:44:26;19.50;99.90
52517;DHT22;59374;53.210;5.726;2022-07-05T12:46:52;19.50;99.90
52517;DHT22;59374;53.210;5.726;2022-07-05T12:49:27;19.70;99.90
52517;DHT22;59374;53.210;5.726;2022-07-05T12:51:53;19.70;99.90
52517;DHT22;59374;53.210;5.726;2022-07-05T12:54:19;19.70;99.90
52517;DHT22;59374;53.210;5.726;2022-07-05T12:57:04;20.00;99.90
52517;DHT22;59374;53.210;5.726;2022-07-05T12:59:58;20.20;99.90
52517;DHT22;59374;53.210;5.726;2022-07-05T13:02:40;20.40;99.90
52517;DHT22;59374;53.210;5.726;2022-07-05T13:05:07;20.80;99.90
52517;DHT22;59374;53.210;5.726;2022-07-05T13:07:33;20.80;99.90
52517;DHT22;59374;53.210;5.726;2022-07-05T13:10:15;20.90;99.90
52517;DHT22;59374;53.210;5.726;2022-07-05T13:12:40;20.50;99.90
52517;DHT22;59374;53.210;5.726;2022-07-05T13:15:06;20.40;99.90
52517;DHT22;59374;53.210;5.726;2022-07-05T13:17:32;20.00;99.90
52517;DHT22;59374;53.210;5.726;2022-07-05T13:19:57;19.90;99.90
52517;DHT22;59374;53.210;5.726;2022-07-05T13:22:25;19.70;99.90
52517;DHT22;59374;53.210;5.726;2022-07-05T13:24:50;19.50;99.90
52517;DHT22;59374;53.210;5.726;2022-07-05T13:27:16;19.40;99.90
52517;DHT22;59374;53.210;5.726;2022-07-05T13:29:41;19.30;99.90
52517;DHT22;59374;53.210;5.726;2022-07-05T13:32:07;19.30;99.90
52517;DHT22;59374;53.210;5.726;2022-07-05T13:34:32;19.50;99.90
52517;DHT22;59374;53.210;5.726;2022-07-05T13:36:58;19.50;99.90
52517;DHT22;59374;53.210;5.726;2022-07-05T13:39:25;20.00;99.90
52517;DHT22;59374;53.210;5.726;2022-07-05T13:41:51;19.90;99.90
52517;DHT22;59374;53.210;5.726;2022-07-05T13:44:17;20.20;99.90
52517;DHT22;59374;53.210;5.726;2022-07-05T13:46:42;20.30;99.90
52517;DHT22;59374;53.210;5.726;2022-07-05T13:49:08;20.40;99.90
52517;DHT22;59374;53.210;5.726;2022-07-05T13:51:33;20.50;99.90
52517;DHT22;59374;53.210;5.726;2022-07-05T13:53:59;20.70;99.90
52517;DHT22;59374;53.210;5.726;2022-07-05T13:56:25;21.30;99.90
52517;DHT22;59374;53.210;5.726;2022-07-05T13:58:52;21.70;99.90
52517;DHT22;59374;53.210;5.726;2022-07-05T14:01:17;22.20;99.50
52517;DHT22;59374;53.210;5.726;2022-07-05T14:03:46;22.20;99.90
52517;DHT22;59374;53.210;5.726;2022-07-05T14:06:11;22.10;98.90
52517;DHT22;59374;53.210;5.726;2022-07-05T14:08:37;21.90;99.90
52517;DHT22;59374;53.210;5.726;2022-07-05T14:11:02;21.40;99.20
52517;DHT22;59374;53.210;5.726;2022-07-05T14:13:28;21.30;99.90
52517;DHT22;59374;53.210;5.726;2022-07-05T14:15:54;21.10;99.90
52517;DHT22;59374;53.210;5.726;2022-07-05T14:18:21;21.30;99.90
52517;DHT22;59374;53.210;5.726;2022-07-05T14:20:47;21.80;99.90
52517;DHT22;59374;53.210;5.726;2022-07-05T14:23:13;22.40;98.70
52517;DHT22;59374;53.210;5.726;2022-07-05T14:25:39;22.80;99.50
52517;DHT22;59374;53.210;5.726;2022-07-05T14:28:05;23.00;97.80
52517;DHT22;59374;53.210;5.726;2022-07-05T14:30:50;22.60;98.50
52517;DHT22;59374;53.210;5.726;2022-07-05T14:33:16;22.50;98.20
52517;DHT22;59374;53.210;5.726;2022-07-05T14:35:43;22.20;97.50
52517;DHT22;59374;53.210;5.726;2022-07-05T14:38:08;21.70;99.00
52517;DHT22;59374;53.210;5.726;2022-07-05T14:40:34;21.30;98.90
52517;DHT22;59374;53.210;5.726;2022-07-05T14:43:00;22.00;98.80
52517;DHT22;59374;53.210;5.726;2022-07-05T14:45:26;23.00;98.20
52517;DHT22;59374;53.210;5.726;2022-07-05T14:47:51;23.60;95.90
52517;DHT22;59374;53.210;5.726;2022-07-05T14:50:17;23.00;96.00
52517;DHT22;59374;53.210;5.726;2022-07-05T14:52:42;22.80;97.30
52517;DHT22;59374;53.210;5.726;2022-07-05T14:55:08;22.50;97.20
52517;DHT22;59374;53.210;5.726;2022-07-05T14:57:34;21.70;97.30
52517;DHT22;59374;53.210;5.726;2022-07-05T15:00:00;22.00;97.60
52517;DHT22;59374;53.210;5.726;2022-07-05T15:02:26;21.80;97.30
52517;DHT22;59374;53.210;5.726;2022-07-05T15:04:51;22.00;97.50
52517;DHT22;59374;53.210;5.726;2022-07-05T15:07:17;21.80;98.80
52517;DHT22;59374;53.210;5.726;2022-07-05T15:09:42;22.00;97.90
52517;DHT22;59374;53.210;5.726;2022-07-05T15:12:08;22.30;97.20
52517;DHT22;59374;53.210;5.726;2022-07-05T15:14:33;22.10;97.80
52517;DHT22;59374;53.210;5.726;2022-07-05T15:16:59;22.60;97.80
52517;DHT22;59374;53.210;5.726;2022-07-05T15:19:24;23.10;96.90
52517;DHT22;59374;53.210;5.726;2022-07-05T15:21:50;22.40;97.00
52517;DHT22;59374;53.210;5.726;2022-07-05T15:24:15;22.20;97.60
52517;DHT22;59374;53.210;5.726;2022-07-05T15:26:42;23.00;96.30
52517;DHT22;59374;53.210;5.726;2022-07-05T15:29:08;22.90;95.90
52517;DHT22;59374;53.210;5.726;2022-07-05T15:31:34;22.40;97.00
52517;DHT22;59374;53.210;5.726;2022-07-05T15:34:00;21.80;97.60
52517;DHT22;59374;53.210;5.726;2022-07-05T15:36:26;21.70;97.80
52517;DHT22;59374;53.210;5.726;2022-07-05T15:38:52;21.30;98.80
52517;DHT22;59374;53.210;5.726;2022-07-05T15:41:18;21.90;97.30
52517;DHT22;59374;53.210;5.726;2022-07-05T15:43:44;22.00;97.00
52517;DHT22;59374;53.210;5.726;2022-07-05T15:46:10;21.60;98.80